Time;durP1;ratioP1;P1;durP2;ratioP2;P2;SDS_P1;SDS_P2;PMS_P1;PMS_P2;Temp;Humidity;BMP_temperature;BMP_pressure;BME280_temperature;BME280_humidity;BME280_pressure;Samples;Min_cycle;Max_cycle;Signal;HPM_P1;HPM_P2
2023/04/02 00:00:17;;;;;;;;;;;;;;;20.08;35.98;94842.19;10481589;28;1975;-62
2023/04/02 00:05:49;;;;;;;;;;;;;;;20.07;36.06;94835.34;10479784;28;1969;-61
2023/04/02 00:10:54;;;;;;;;;;;;;;;20.04;35.78;94841.22;10476419;28;2319;-61
2023/04/02 00:15:56;;;;;;;;;;;;;;;20.02;36.02;94846.00;10459084;28;2013;-61
2023/04/02 00:21:06;;;;;;;;;;;;;;;20.01;35.82;94836.53;10456650;28;2088;-61
2023/04/02 00:26:20;;;;;;;;;;;;;;;20.00;36.00;94842.09;10472463;28;2093;-61
2023/04/02 00:31:21;;;;;;;;;;;;;;;19.99;35.82;94851.06;10482011;28;2053;-61
2023/04/02 00:36:23;;;;;;;;;;;;;;;19.96;35.90;94862.94;10469302;28;1941;-61
2023/04/02 00:41:25;;;;;;;;;;;;;;;19.95;35.74;94860.56;10481694;28;2043;-61
2023/04/02 00:46:28;;;;;;;;;;;;;;;19.94;36.05;94864.28;10482111;28;1928;-61
2023/04/02 00:51:34;;;;;;;;;;;;;;;19.92;35.79;94864.59;10466759;28;2001;-61
2023/04/02 00:56:51;;;;;;;;;;;;;;;19.90;35.77;94865.94;10463408;28;2470;-61
2023/04/02 01:02:18;;;;;;;;;;;;;;;19.88;36.14;94865.44;10483656;28;2048;-61
2023/04/02 01:07:18;;;;;;;;;;;;;;;19.86;36.09;94865.75;10475778;28;2112;-61
2023/04/02 01:12:19;;;;;;;;;;;;;;;19.84;35.96;94864.47;10465169;28;2155;-61
2023/04/02 01:17:29;;;;;;;;;;;;;;;19.84;35.66;94867.09;10484722;28;2098;-61
2023/04/02 01:22:33;;;;;;;;;;;;;;;19.82;35.66;94874.50;10481370;28;2016;-61
2023/04/02 01:27:38;;;;;;;;;;;;;;;19.81;35.76;94870.28;10479131;28;1951;-61
2023/04/02 01:32:39;;;;;;;;;;;;;;;19.80;35.76;94871.38;10465948;28;2163;-61
2023/04/02 01:37:49;;;;;;;;;;;;;;;19.78;35.61;94878.78;10463235;28;2107;-61
2023/04/02 01:43:05;;;;;;;;;;;;;;;19.77;35.64;94885.09;10463914;28;2012;-61
2023/04/02 01:48:10;;;;;;;;;;;;;;;19.76;35.49;94886.19;10465932;28;1976;-61
2023/04/02 01:53:11;;;;;;;;;;;;;;;19.73;35.53;94890.16;10465289;28;2023;-61
2023/04/02 01:58:12;;;;;;;;;;;;;;;19.73;35.64;94886.75;10458312;28;1938;-61
2023/04/02 02:03:13;;;;;;;;;;;;;;;19.72;35.63;94896.47;10461849;28;2062;-61
2023/04/02 02:08:33;;;;;;;;;;;;;;;19.69;35.67;94891.00;10460171;28;2062;-61
2023/04/02 02:13:33;;;;;;;;;;;;;;;19.69;35.50;94901.53;10460490;28;2048;-61
2023/04/02 02:18:35;;;;;;;;;;;;;;;19.68;35.66;94906.00;10482153;28;2217;-61
2023/04/02 02:23:36;;;;;;;;;;;;;;;19.67;35.68;94914.19;10461596;28;2262;-61
2023/04/02 02:28:37;;;;;;;;;;;;;;;19.65;35.37;94916.31;10479674;28;2071;-61
2023/04/02 02:33:40;;;;;;;;;;;;;;;19.63;35.88;94907.94;10466566;28;2062;-61
2023/04/02 02:38:44;;;;;;;;;;;;;;;19.62;35.62;94922.94;10474375;28;2426;-61
2023/04/02 02:43:51;;;;;;;;;;;;;;;19.62;35.56;94927.44;10476205;28;2036;-61
2023/04/02 02:48:53;;;;;;;;;;;;;;;19.60;35.45;94940.06;10482261;28;1953;-59
2023/04/02 02:53:54;;;;;;;;;;;;;;;19.58;35.53;94940.34;10461903;28;1984;-61
2023/04/02 02:58:54;;;;;;;;;;;;;;;19.58;35.64;94937.72;10460127;28;2084;-61
2023/04/02 03:03:55;;;;;;;;;;;;;;;19.57;35.73;94943.25;10477464;28;1988;-61
2023/04/02 03:09:03;;;;;;;;;;;;;;;19.56;35.59;94945.09;10478675;28;1984;-61
2023/04/02 03:14:25;;;;;;;;;;;;;;;19.54;35.37;94947.25;10461638;28;2003;-61
2023/04/02 03:19:34;;;;;;;;;;;;;;;19.52;35.73;94953.84;10466150;28;1984;-61
2023/04/02 03:24:34;;;;;;;;;;;;;;;19.51;35.78;94953.09;10462100;28;2035;-61
2023/04/02 03:29:36;;;;;;;;;;;;;;;19.52;35.53;94959.09;10481424;28;2040;-61
2023/04/02 03:34:38;;;;;;;;;;;;;;;19.49;35.54;94960.47;10471859;28;1999;-61
2023/04/02 03:39:38;;;;;;;;;;;;;;;19.48;35.63;94964.94;10464370;28;2020;-61
2023/04/02 03:44:50;;;;;;;;;;;;;;;19.48;35.56;94970.19;10481511;28;1998;-61
2023/04/02 03:49:52;;;;;;;;;;;;;;;19.45;35.41;94973.38;10470665;28;1936;-61
2023/04/02 03:54:53;;;;;;;;;;;;;;;19.45;35.69;94980.50;10464402;28;2085;-61
2023/04/02 03:59:57;;;;;;;;;;;;;;;19.43;35.70;94974.75;10479399;28;1968;-61
2023/04/02 04:04:57;;;;;;;;;;;;;;;19.42;36.00;94981.06;10485647;28;2016;-61
2023/04/02 04:09:57;;;;;;;;;;;;;;;19.43;36.28;94987.91;10484341;28;2169;-60
2023/04/02 04:15:08;;;;;;;;;;;;;;;19.49;36.04;94989.38;10482840;28;2033;-61
2023/04/02 04:20:13;;;;;;;;;;;;;;;19.56;35.95;95007.44;10463074;28;2022;-61
2023/04/02 04:25:20;;;;;;;;;;;;;;;19.61;35.95;95004.72;10462492;28;2153;-61
2023/04/02 04:30:47;;;;;;;;;;;;;;;19.68;35.71;95005.91;10486242;28;2127;-61
2023/04/02 04:35:57;;;;;;;;;;;;;;;19.77;35.55;95013.94;10470744;28;2099;-61
2023/04/02 04:41:05;;;;;;;;;;;;;;;19.83;35.60;95021.47;10482975;28;2072;-60
2023/04/02 04:46:09;;;;;;;;;;;;;;;19.89;35.23;95028.22;10465958;28;2129;-61
2023/04/02 04:51:47;;;;;;;;;;;;;;;19.95;35.34;95042.06;10465281;28;2026;-61
2023/04/02 04:56:48;;;;;;;;;;;;;;;20.02;35.21;95045.13;10392443;28;2088;-61
2023/04/02 05:01:56;;;;;;;;;;;;;;;20.06;34.92;95046.91;10487681;28;1981;-61
2023/04/02 05:07:10;;;;;;;;;;;;;;;20.10;34.88;95055.00;10462518;28;2018;-60
2023/04/02 05:12:36;;;;;;;;;;;;;;;20.14;34.94;95061.25;10462260;28;1897;-60
2023/04/02 05:17:39;;;;;;;;;;;;;;;20.19;34.85;95067.28;10480330;28;1952;-61
2023/04/02 05:23:17;;;;;;;;;;;;;;;20.21;34.74;95070.41;10479528;28;2003;-58
2023/04/02 05:28:38;;;;;;;;;;;;;;;20.25;34.73;95078.50;10389432;28;2054;-60
2023/04/02 05:33:38;;;;;;;;;;;;;;;20.26;34.67;95082.66;10465063;28;2093;-61
2023/04/02 05:38:45;;;;;;;;;;;;;;;20.30;34.63;95090.78;10485786;28;2006;-61
2023/04/02 05:43:46;;;;;;;;;;;;;;;20.32;34.48;95096.56;10465499;28;1997;-61
2023/04/02 05:48:49;;;;;;;;;;;;;;;20.36;34.27;95098.31;10434231;28;2003;-61
2023/04/02 05:53:59;;;;;;;;;;;;;;;20.39;34.25;95100.38;10482773;28;2020;-61
2023/04/02 05:59:06;;;;;;;;;;;;;;;20.40;34.11;95111.69;10462457;28;2060;-61
2023/04/02 06:04:25;;;;;;;;;;;;;;;20.42;34.33;95114.81;10464401;28;2115;-61
2023/04/02 06:09:26;;;;;;;;;;;;;;;20.45;34.17;95119.50;10484198;28;2014;-61
2023/04/02 06:14:27;;;;;;;;;;;;;;;20.45;34.08;95116.84;10480513;28;2009;-61
2023/04/02 06:19:31;;;;;;;;;;;;;;;20.45;34.13;95130.81;10480014;28;2099;-61
2023/04/02 06:24:32;;;;;;;;;;;;;;;20.46;34.01;95123.69;10461087;28;1929;-60
2023/04/02 06:29:38;;;;;;;;;;;;;;;20.51;33.89;95128.88;10477328;28;2066;-61
2023/04/02 06:34:39;;;;;;;;;;;;;;;20.52;33.88;95135.72;10462893;28;2015;-60
2023/04/02 06:39:40;;;;;;;;;;;;;;;20.52;33.91;95143.63;10463440;28;2087;-61
2023/04/02 06:44:50;;;;;;;;;;;;;;;20.53;33.67;95145.94;10461385;28;2044;-61
2023/04/02 06:49:54;;;;;;;;;;;;;;;20.54;33.83;95165.97;10492689;28;2044;-60
2023/04/02 06:54:54;;;;;;;;;;;;;;;20.56;33.94;95169.09;10461780;28;2125;-60
2023/04/02 06:59:55;;;;;;;;;;;;;;;20.55;33.94;95180.69;10475412;28;2016;-60
2023/04/02 07:05:03;;;;;;;;;;;;;;;20.58;33.83;95181.97;10482345;28;1984;-59
2023/04/02 07:10:03;;;;;;;;;;;;;;;20.58;33.60;95188.00;10475261;28;1937;-61
2023/04/02 07:15:04;;;;;;;;;;;;;;;20.57;33.94;95189.06;10475620;28;2085;-61
2023/04/02 07:20:05;;;;;;;;;;;;;;;20.57;33.67;95190.91;10477219;28;2009;-61
2023/04/02 07:25:06;;;;;;;;;;;;;;;20.55;33.76;95203.59;10476893;28;2172;-61
2023/04/02 07:30:07;;;;;;;;;;;;;;;20.53;33.67;95209.16;10476416;28;2156;-61
2023/04/02 07:35:09;;;;;;;;;;;;;;;20.51;33.82;95208.66;10482140;28;2063;-60
2023/04/02 07:40:14;;;;;;;;;;;;;;;20.49;34.19;95213.41;10481320;28;2352;-60
2023/04/02 07:45:15;;;;;;;;;;;;;;;20.48;34.13;95217.13;10486769;28;1960;-61
2023/04/02 07:50:20;;;;;;;;;;;;;;;20.41;34.45;95219.31;10488572;28;2260;-60
2023/04/02 07:55:20;;;;;;;;;;;;;;;20.42;34.29;95230.66;10487666;28;2078;-61
2023/04/02 08:00:30;;;;;;;;;;;;;;;20.40;34.73;95238.84;10485248;28;2360;-59
2023/04/02 08:05:30;;;;;;;;;;;;;;;20.41;35.11;95237.75;10481390;28;1909;-59
2023/04/02 08:10:40;;;;;;;;;;;;;;;20.40;35.79;95238.84;10468037;28;1971;-59
2023/04/02 08:15:41;;;;;;;;;;;;;;;20.38;36.22;95245.44;10487918;28;2052;-60
2023/04/02 08:20:42;;;;;;;;;;;;;;;20.39;36.39;95262.78;10484759;28;2279;-62
2023/04/02 08:25:43;;;;;;;;;;;;;;;20.38;36.78;95266.50;10483318;28;1977;-63
2023/04/02 08:30:44;;;;;;;;;;;;;;;20.33;36.81;95267.34;10482626;28;2019;-62
2023/04/02 08:35:45;;;;;;;;;;;;;;;20.34;36.84;95274.16;10481471;28;2095;-62
2023/04/02 08:40:49;;;;;;;;;;;;;;;20.31;37.06;95272.13;10477850;28;2049;-63
2023/04/02 08:45:52;;;;;;;;;;;;;;;20.27;37.00;95266.63;10482621;28;2026;-60
2023/04/02 08:50:53;;;;;;;;;;;;;;;20.26;36.61;95283.47;10481549;28;2043;-62
2023/04/02 08:56:07;;;;;;;;;;;;;;;20.24;36.71;95279.56;10482963;28;2104;-62
2023/04/02 09:01:19;;;;;;;;;;;;;;;20.20;36.83;95292.50;10477258;28;2377;-63
2023/04/02 09:06:20;;;;;;;;;;;;;;;20.16;36.90;95290.69;10476740;28;1949;-63
2023/04/02 09:11:22;;;;;;;;;;;;;;;20.14;37.26;95290.97;10480452;28;2068;-62
2023/04/02 09:16:49;;;;;;;;;;;;;;;20.14;37.46;95298.06;10482174;28;2327;-62
2023/04/02 09:21:57;;;;;;;;;;;;;;;20.14;37.76;95303.34;10473847;28;2273;-63
2023/04/02 09:26:57;;;;;;;;;;;;;;;20.13;37.45;95304.41;10442309;28;1078919;-62
2023/04/02 09:32:01;;;;;;;;;;;;;;;20.12;37.97;95316.78;10479625;28;2340;-62
2023/04/02 09:37:06;;;;;;;;;;;;;;;20.12;37.73;95316.78;10465615;28;2079;-62
2023/04/02 09:42:06;;;;;;;;;;;;;;;20.10;38.01;95329.44;10478932;28;1905;-62
2023/04/02 09:47:21;;;;;;;;;;;;;;;20.08;38.23;95325.50;10481644;28;1978;-62
2023/04/02 09:52:28;;;;;;;;;;;;;;;20.08;38.06;95328.13;10480357;28;2338;-62
2023/04/02 09:57:29;;;;;;;;;;;;;;;20.05;38.26;95334.75;10477630;28;2302;-62
2023/04/02 10:02:31;;;;;;;;;;;;;;;20.04;38.39;95335.03;10476289;28;2252;-62
2023/04/02 10:07:36;;;;;;;;;;;;;;;20.02;38.17;95337.16;10479751;28;2146;-61
2023/04/02 10:12:37;;;;;;;;;;;;;;;20.00;38.46;95339.28;10478169;28;1978;-61
2023/04/02 10:17:37;;;;;;;;;;;;;;;19.99;38.22;95340.38;10457292;28;2397;-61
2023/04/02 10:22:40;;;;;;;;;;;;;;;19.95;38.33;95347.22;10458424;28;2048;-61
2023/04/02 10:27:45;;;;;;;;;;;;;;;19.94;38.45;95340.41;10480497;28;2237;-61
2023/04/02 10:32:59;;;;;;;;;;;;;;;19.95;38.45;95348.00;10456620;28;2304;-62
2023/04/02 10:38:02;;;;;;;;;;;;;;;19.94;38.36;95350.91;10459364;28;2046;-62
2023/04/02 10:43:21;;;;;;;;;;;;;;;19.92;38.49;95340.69;10480280;28;2304;-59
2023/04/02 10:48:31;;;;;;;;;;;;;;;19.92;38.46;95347.78;10480875;28;2259;-60
2023/04/02 10:53:47;;;;;;;;;;;;;;;19.90;38.47;95355.19;10476081;28;1980;-60
2023/04/02 10:58:51;;;;;;;;;;;;;;;19.87;38.72;95356.50;10457786;28;2218;-60
2023/04/02 11:04:01;;;;;;;;;;;;;;;19.87;38.50;95366.25;10474156;28;2036;-62
2023/04/02 11:09:04;;;;;;;;;;;;;;;19.86;38.49;95370.72;10473923;28;2547;-60
2023/04/02 11:14:24;;;;;;;;;;;;;;;19.84;38.58;95372.84;10458951;28;2307;-61
2023/04/02 11:19:26;;;;;;;;;;;;;;;19.83;38.51;95371.28;10475006;28;2487;-64
2023/04/02 11:24:32;;;;;;;;;;;;;;;19.82;38.58;95369.72;10478870;28;1982;-60
2023/04/02 11:29:35;;;;;;;;;;;;;;;19.83;38.78;95379.16;10471654;28;1981;-61
2023/04/02 11:34:48;;;;;;;;;;;;;;;19.84;38.72;95382.59;10458910;28;2010;-60
2023/04/02 11:39:52;;;;;;;;;;;;;;;19.86;38.67;95383.09;10475359;28;2403;-59
2023/04/02 11:44:53;;;;;;;;;;;;;;;19.90;38.76;95392.78;10472912;28;2204;-59
2023/04/02 11:49:53;;;;;;;;;;;;;;;19.92;38.51;95389.88;10459168;28;2422;-65
2023/04/02 11:54:56;;;;;;;;;;;;;;;19.94;38.34;95393.00;10475004;28;1944;-64
2023/04/02 12:00:09;;;;;;;;;;;;;;;19.96;38.37;95390.88;10473784;28;2019;-64
2023/04/02 12:05:26;;;;;;;;;;;;;;;20.01;38.26;95393.47;10474061;28;2333;-64
2023/04/02 12:10:27;;;;;;;;;;;;;;;20.03;38.19;95394.00;10463080;28;2050;-63
2023/04/02 12:15:40;;;;;;;;;;;;;;;20.06;38.15;95390.78;10457782;28;1985;-63
2023/04/02 12:20:46;;;;;;;;;;;;;;;20.12;37.82;95405.47;10476944;28;2006;-64
2023/04/02 12:25:52;;;;;;;;;;;;;;;20.13;38.38;95410.44;10464721;28;2076;-64
2023/04/02 12:31:00;;;;;;;;;;;;;;;20.18;38.38;95413.03;10450001;28;2487;-64
2023/04/02 12:36:03;;;;;;;;;;;;;;;20.21;38.51;95430.16;10466300;28;1948;-64
2023/04/02 12:41:14;;;;;;;;;;;;;;;20.25;38.99;95431.16;10479196;28;1966;-63
2023/04/02 12:46:16;;;;;;;;;;;;;;;20.27;39.56;95432.44;10454685;28;2069;-63
2023/04/02 12:51:16;;;;;;;;;;;;;;;20.32;39.17;95436.09;10465160;28;2472;-63
2023/04/02 12:56:17;;;;;;;;;;;;;;;20.32;38.89;95446.63;10484819;28;1920;-63
2023/04/02 13:01:19;;;;;;;;;;;;;;;20.34;39.45;95447.88;10480918;28;1953;-63
2023/04/02 13:06:32;;;;;;;;;;;;;;;20.35;39.30;95449.47;10472845;28;2269;-62
2023/04/02 13:11:39;;;;;;;;;;;;;;;20.37;39.35;95449.97;10479704;28;2305;-62
2023/04/02 13:16:40;;;;;;;;;;;;;;;20.38;39.02;95450.78;10484580;28;2295;-62
2023/04/02 13:21:40;;;;;;;;;;;;;;;20.39;39.01;95457.59;10485212;28;1916;-62
2023/04/02 13:26:42;;;;;;;;;;;;;;;20.39;39.33;95454.97;10472624;28;2383;-62
2023/04/02 13:31:42;;;;;;;;;;;;;;;20.42;39.05;95457.84;10480484;28;2308;-62
2023/04/02 13:36:43;;;;;;;;;;;;;;;20.42;38.91;95464.94;10480584;28;2107;-61
2023/04/02 13:41:45;;;;;;;;;;;;;;;20.42;38.54;95460.47;10483650;28;2364;-62
2023/04/02 13:46:45;;;;;;;;;;;;;;;20.41;39.03;95463.38;10451693;28;2062;-62
2023/04/02 13:51:58;;;;;;;;;;;;;;;20.40;38.70;95454.69;10480768;28;2324;-62
2023/04/02 13:56:58;;;;;;;;;;;;;;;20.41;38.69;95460.72;10478742;28;1964;-62
2023/04/02 14:02:02;;;;;;;;;;;;;;;20.42;38.99;95472.84;10463885;28;2011;-62
2023/04/02 14:07:03;;;;;;;;;;;;;;;20.41;39.07;95479.94;10498328;28;2287;-62
2023/04/02 14:12:16;;;;;;;;;;;;;;;20.42;38.69;95489.44;10480687;28;2487;-62
2023/04/02 14:17:17;;;;;;;;;;;;;;;20.40;38.85;95496.81;10462562;28;1980;-64
2023/04/02 14:22:32;;;;;;;;;;;;;;;20.42;38.77;95492.06;10481958;28;2031;-64
2023/04/02 14:27:52;;;;;;;;;;;;;;;20.43;38.48;95496.25;10464277;28;2139;-64
2023/04/02 14:32:54;;;;;;;;;;;;;;;20.42;38.67;95515.75;10483174;28;2565;-62
2023/04/02 14:38:00;;;;;;;;;;;;;;;20.38;39.15;95514.72;10479989;28;2331;-62
2023/04/02 14:43:14;;;;;;;;;;;;;;;20.40;38.85;95515.25;10481040;28;2034;-62
2023/04/02 14:48:20;;;;;;;;;;;;;;;20.38;38.39;95519.97;10478513;28;1954;-64
2023/04/02 14:53:23;;;;;;;;;;;;;;;20.36;38.57;95519.47;10461276;28;1923;-64
2023/04/02 14:58:28;;;;;;;;;;;;;;;20.36;38.70;95524.75;10480501;28;2309;-62
2023/04/02 15:03:31;;;;;;;;;;;;;;;20.35;38.46;95527.66;10449225;28;2066;-64
2023/04/02 15:08:36;;;;;;;;;;;;;;;20.32;38.50;95538.75;10463476;28;2367;-64
2023/04/02 15:13:37;;;;;;;;;;;;;;;20.31;38.08;95539.81;10461186;28;1960;-64
2023/04/02 15:18:37;;;;;;;;;;;;;;;20.30;38.66;95539.00;10465332;28;2007;-64
2023/04/02 15:23:41;;;;;;;;;;;;;;;20.29;38.04;95545.34;10478777;28;2291;-64
2023/04/02 15:28:46;;;;;;;;;;;;;;;20.26;38.29;95553.78;10460725;28;2069;-64
2023/04/02 15:33:52;;;;;;;;;;;;;;;20.26;38.20;95549.31;10462178;28;1966;-64
2023/04/02 15:39:14;;;;;;;;;;;;;;;20.26;38.57;95564.31;10494036;28;2027;-64
2023/04/02 15:44:14;;;;;;;;;;;;;;;20.27;37.95;95565.91;10476123;28;2263;-64
2023/04/02 15:49:19;;;;;;;;;;;;;;;20.25;38.33;95568.81;10476510;28;2051;-64
2023/04/02 15:54:35;;;;;;;;;;;;;;;20.27;38.62;95573.78;10462180;28;2307;-63
2023/04/02 15:59:40;;;;;;;;;;;;;;;20.27;38.33;95584.31;10490361;28;2006;-64
2023/04/02 16:04:44;;;;;;;;;;;;;;;20.29;38.39;95592.72;10469754;28;2385;-64
2023/04/02 16:09:47;;;;;;;;;;;;;;;20.31;38.44;95608.25;10484968;28;2320;-64
2023/04/02 16:14:47;;;;;;;;;;;;;;;20.30;38.43;95604.81;10469429;28;2306;-64
2023/04/02 16:19:49;;;;;;;;;;;;;;;20.30;38.54;95615.34;10484411;28;2164;-64
2023/04/02 16:25:00;;;;;;;;;;;;;;;20.31;38.61;95630.09;10485505;28;2379;-64
2023/04/02 16:30:13;;;;;;;;;;;;;;;20.31;38.51;95639.81;10484136;28;2019;-64
2023/04/02 16:35:26;;;;;;;;;;;;;;;20.31;38.22;95643.25;10465915;28;2321;-64
2023/04/02 16:40:36;;;;;;;;;;;;;;;20.32;38.30;95646.69;10483231;28;2330;-63
2023/04/02 16:46:03;;;;;;;;;;;;;;;20.32;37.99;95652.72;10486842;28;2067;-64
2023/04/02 16:51:11;;;;;;;;;;;;;;;20.31;38.38;95666.94;10441004;28;2266;-64
2023/04/02 16:56:26;;;;;;;;;;;;;;;20.30;38.27;95673.25;10500868;28;2390;-63
2023/04/02 17:01:33;;;;;;;;;;;;;;;20.30;38.13;95675.88;10468516;28;1972;-64
2023/04/02 17:06:34;;;;;;;;;;;;;;;20.32;38.07;95679.03;10460424;28;2020;-63
2023/04/02 17:11:58;;;;;;;;;;;;;;;20.31;38.10;95695.09;10477241;28;2028;-63
2023/04/02 17:17:10;;;;;;;;;;;;;;;20.32;38.10;95705.34;10477883;28;1936;-63
2023/04/02 17:22:14;;;;;;;;;;;;;;;20.32;38.23;95709.84;10483975;28;1976;-63
2023/04/02 17:27:19;;;;;;;;;;;;;;;20.33;37.96;95722.75;10485661;28;2322;-64
2023/04/02 17:32:24;;;;;;;;;;;;;;;20.31;37.93;95731.97;10471140;28;2128;-64
2023/04/02 17:37:33;;;;;;;;;;;;;;;20.31;38.04;95745.91;10464898;28;1972;-63
2023/04/02 17:42:57;;;;;;;;;;;;;;;20.31;37.99;95748.56;10468758;28;2027;-64
2023/04/02 17:48:02;;;;;;;;;;;;;;;20.30;38.69;95762.75;10479700;28;2505;-63
2023/04/02 17:53:22;;;;;;;;;;;;;;;20.29;38.96;95769.09;10482497;28;2000;-64
2023/04/02 17:58:29;;;;;;;;;;;;;;;20.31;38.70;95787.25;10480623;28;2282;-64
2023/04/02 18:03:32;;;;;;;;;;;;;;;20.33;38.76;95800.91;10481452;28;2188;-63
2023/04/02 18:08:54;;;;;;;;;;;;;;;20.28;39.17;95809.63;10479596;28;2405;-62
2023/04/02 18:13:58;;;;;;;;;;;;;;;20.28;39.33;95815.69;10462011;28;2076;-62
2023/04/02 18:19:02;;;;;;;;;;;;;;;20.27;38.71;95822.00;10483235;28;2029;-63
2023/04/02 18:24:09;;;;;;;;;;;;;;;20.23;39.01;95834.16;10483562;28;2351;-63
2023/04/02 18:29:29;;;;;;;;;;;;;;;20.21;38.64;95838.09;10460440;28;2029;-63
2023/04/02 18:34:31;;;;;;;;;;;;;;;20.19;39.09;95855.97;10458382;28;2275;-64
2023/04/02 18:39:41;;;;;;;;;;;;;;;20.17;38.69;95858.06;10480231;28;1983;-63
2023/04/02 18:45:10;;;;;;;;;;;;;;;20.16;38.84;95874.91;10467266;28;2263;-63
2023/04/02 18:50:28;;;;;;;;;;;;;;;20.13;38.79;95884.13;10477160;28;1954;-63
2023/04/02 18:55:29;;;;;;;;;;;;;;;20.13;38.97;95889.38;10480879;28;2437;-63
2023/04/02 19:00:39;;;;;;;;;;;;;;;20.13;38.93;95897.28;10469420;28;2053;-63
2023/04/02 19:06:00;;;;;;;;;;;;;;;20.11;38.97;95904.66;10478516;28;2395;-63
2023/04/02 19:11:00;;;;;;;;;;;;;;;20.12;38.46;95903.63;10478237;28;1993;-63
2023/04/02 19:16:23;;;;;;;;;;;;;;;20.12;38.82;95913.34;10460907;28;2042;-63
2023/04/02 19:21:42;;;;;;;;;;;;;;;20.12;38.44;95922.03;10458583;28;2031;-63
2023/04/02 19:26:52;;;;;;;;;;;;;;;20.12;38.19;95934.41;10479259;28;1976;-63
2023/04/02 19:31:55;;;;;;;;;;;;;;;20.13;37.95;95943.88;10490325;28;1873;-62
2023/04/02 19:36:59;;;;;;;;;;;;;;;20.14;38.06;95956.78;10470240;28;2019;-62
2023/04/02 19:42:21;;;;;;;;;;;;;;;20.15;38.08;95963.59;10484842;28;2293;-63
2023/04/02 19:47:23;;;;;;;;;;;;;;;20.15;38.16;95968.09;10470076;28;2090;-62
2023/04/02 19:52:23;;;;;;;;;;;;;;;20.16;38.37;95986.25;10467297;28;2028;-62
2023/04/02 19:57:24;;;;;;;;;;;;;;;20.14;38.54;95977.81;10487858;28;2242;-63
2023/04/02 20:02:24;;;;;;;;;;;;;;;20.13;38.50;95984.13;10484296;28;2479;-62
2023/04/02 20:07:25;;;;;;;;;;;;;;;20.12;38.55;95994.94;10487042;28;2056;-63
2023/04/02 20:12:25;;;;;;;;;;;;;;;20.11;38.40;95999.41;10484735;28;2219;-62
2023/04/02 20:17:27;;;;;;;;;;;;;;;20.10;38.35;95999.66;10483115;28;2139;-62
2023/04/02 20:22:29;;;;;;;;;;;;;;;20.08;38.44;96009.66;10483375;28;2322;-61
2023/04/02 20:27:34;;;;;;;;;;;;;;;20.06;38.30;96020.47;10480563;28;1932;-62
2023/04/02 20:32:35;;;;;;;;;;;;;;;20.07;38.22;96029.16;10484232;28;2116;-62
2023/04/02 20:37:36;;;;;;;;;;;;;;;20.02;38.64;96034.41;10484091;28;2015;-62
2023/04/02 20:42:36;;;;;;;;;;;;;;;20.00;38.56;96037.31;10485293;28;1951;-62
2023/04/02 20:47:37;;;;;;;;;;;;;;;19.99;38.60;96042.84;10484034;28;2313;-62
2023/04/02 20:52:37;;;;;;;;;;;;;;;19.97;38.37;96044.94;10485242;28;2336;-62
2023/04/02 20:57:38;;;;;;;;;;;;;;;19.94;38.41;96056.78;10462016;28;2406;-61
2023/04/02 21:02:38;;;;;;;;;;;;;;;19.91;38.54;96072.28;10487196;28;2305;-62
2023/04/02 21:07:38;;;;;;;;;;;;;;;19.87;38.52;96081.75;10485007;28;2307;-63
2023/04/02 21:12:38;;;;;;;;;;;;;;;19.87;38.63;96081.75;10484495;28;2164;-62
2023/04/02 21:17:39;;;;;;;;;;;;;;;19.86;38.48;96085.44;10487585;28;2328;-62
2023/04/02 21:22:40;;;;;;;;;;;;;;;19.84;38.11;96098.88;10486055;28;2064;-62
2023/04/02 21:27:40;;;;;;;;;;;;;;;19.81;38.28;96086.22;10485842;28;2031;-62
2023/04/02 21:32:41;;;;;;;;;;;;;;;19.77;38.54;96098.31;10479349;28;2027;-62
2023/04/02 21:37:42;;;;;;;;;;;;;;;19.76;38.39;96111.72;10481526;28;2086;-62
2023/04/02 21:42:43;;;;;;;;;;;;;;;19.74;38.26;96111.97;10482208;28;1995;-62
2023/04/02 21:47:44;;;;;;;;;;;;;;;19.73;38.50;96122.75;10483474;28;2293;-62
2023/04/02 21:52:45;;;;;;;;;;;;;;;19.70;38.57;96131.94;10476029;28;1992;-62
2023/04/02 21:57:45;;;;;;;;;;;;;;;19.67;38.49;96139.56;10480244;28;2266;-62
2023/04/02 22:02:46;;;;;;;;;;;;;;;19.68;38.16;96141.16;10461817;28;2123;-62
2023/04/02 22:07:47;;;;;;;;;;;;;;;19.66;38.31;96132.75;10464560;28;2328;-62
2023/04/02 22:12:48;;;;;;;;;;;;;;;19.64;38.29;96132.22;10481434;28;2275;-60
2023/04/02 22:17:49;;;;;;;;;;;;;;;19.61;38.50;96141.41;10481542;28;2445;-60
2023/04/02 22:22:50;;;;;;;;;;;;;;;19.60;38.28;96149.56;10477419;28;2099;-60
2023/04/02 22:27:50;;;;;;;;;;;;;;;19.58;38.33;96149.03;10478678;28;1960;-60
2023/04/02 22:32:51;;;;;;;;;;;;;;;19.57;38.21;96157.94;10461041;28;2296;-61
2023/04/02 22:37:51;;;;;;;;;;;;;;;19.56;38.51;96159.78;10481203;28;2554;-62
2023/04/02 22:42:52;;;;;;;;;;;;;;;19.54;39.27;96161.88;10482697;28;1901;-62
2023/04/02 22:47:52;;;;;;;;;;;;;;;19.54;40.14;96153.97;10481683;28;2260;-61
2023/04/02 22:52:52;;;;;;;;;;;;;;;19.56;40.11;96159.00;10464730;28;2053;-62
2023/04/02 22:57:53;;;;;;;;;;;;;;;19.57;40.00;96161.38;10476062;28;2305;-62
2023/04/02 23:02:53;;;;;;;;;;;;;;;19.56;39.90;96159.00;10479697;28;1909;-62
2023/04/02 23:07:54;;;;;;;;;;;;;;;19.55;40.04;96158.22;10444082;28;2149;-62
2023/04/02 23:12:54;;;;;;;;;;;;;;;19.53;40.05;96162.94;10481536;28;1949;-62
2023/04/02 23:17:54;;;;;;;;;;;;;;;19.53;40.21;96168.19;10481970;28;2325;-62
2023/04/02 23:22:55;;;;;;;;;;;;;;;19.52;40.05;96163.16;10477488;28;2092;-62
2023/04/02 23:27:55;;;;;;;;;;;;;;;19.48;40.20;96163.69;10481616;28;2497;-61
2023/04/02 23:32:56;;;;;;;;;;;;;;;19.48;40.13;96158.44;10478332;28;2051;-62
2023/04/02 23:37:57;;;;;;;;;;;;;;;19.48;40.06;96157.63;10479079;28;2121;-62
2023/04/02 23:42:58;;;;;;;;;;;;;;;19.47;39.99;96156.84;10477636;28;2048;-62
2023/04/02 23:47:59;;;;;;;;;;;;;;;19.44;40.00;96157.38;10478799;28;2330;-62
2023/04/02 23:52:59;;;;;;;;;;;;;;;19.43;39.98;96153.13;10481101;28;1971;-62
2023/04/02 23:58:00;;;;;;;;;;;;;;;19.42;39.71;96156.03;10475944;28;2052;-62
